BDR643 HUEN-HJJJ
Flight info
| Callsign | BDR643 |
|---|---|
| Flight time | 1h 3m |
| Altitude | 32000 |
| Route | UVBAX2D UVBAX UG656 ATUGA ATUGA1A |
| Aircraft | B738/M-SDE2E3FGHIRWXY/LB1 |
Departure
| Time | 2026-05-08 19:52 |
|---|---|
| Airport | Entebbe International Airport (HUEN) |
Arrival
| Time | 2026-05-08 20:55 |
|---|---|
| Airport | Juba International Airport (HJJJ) |
| Time | Latitude | Longitude | Altitude | Speed | Heading |
|---|---|---|---|---|---|
| 2026-05-08 19:30 | 0.04275 | 32.44225 | 3779 ft | 0 kts | 82° |
| 2026-05-08 19:44 | 0.04272 | 32.44205 | 3773 ft | 4 kts | 82° |
| 2026-05-08 19:44 | 0.04269 | 32.44179 | 3787 ft | 4 kts | 82° |
| 2026-05-08 19:44 | 0.04266 | 32.44157 | 3783 ft | 4 kts | 73° |
| 2026-05-08 19:44 | 0.04254 | 32.44134 | 3785 ft | 4 kts | 47° |
| 2026-05-08 19:45 | 0.04234 | 32.44116 | 3779 ft | 4 kts | 40° |
| 2026-05-08 19:45 | 0.04217 | 32.44098 | 3779 ft | 3 kts | 75° |
| 2026-05-08 19:45 | 0.04216 | 32.44094 | 3779 ft | 0 kts | 81° |
| 2026-05-08 19:47 | 0.04216 | 32.44095 | 3779 ft | 1 kts | 81° |
| 2026-05-08 19:47 | 0.04224 | 32.44120 | 3787 ft | 6 kts | 57° |
| 2026-05-08 19:48 | 0.04273 | 32.44134 | 3784 ft | 9 kts | 353° |
| 2026-05-08 19:48 | 0.04350 | 32.44125 | 3783 ft | 13 kts | 353° |
| 2026-05-08 19:48 | 0.04450 | 32.44110 | 3779 ft | 16 kts | 350° |
| 2026-05-08 19:48 | 0.04568 | 32.44093 | 3779 ft | 18 kts | 352° |
| 2026-05-08 19:49 | 0.04702 | 32.44075 | 3779 ft | 21 kts | 352° |
| 2026-05-08 19:49 | 0.04844 | 32.44052 | 3780 ft | 18 kts | 338° |
| 2026-05-08 19:49 | 0.04914 | 32.44011 | 3784 ft | 9 kts | 345° |
| 2026-05-08 19:49 | 0.04981 | 32.43999 | 3786 ft | 11 kts | 351° |
| 2026-05-08 19:50 | 0.05067 | 32.43986 | 3785 ft | 14 kts | 352° |
| 2026-05-08 19:50 | 0.05174 | 32.43971 | 3785 ft | 17 kts | 352° |
| 2026-05-08 19:50 | 0.05276 | 32.43947 | 3794 ft | 15 kts | 330° |
| 2026-05-08 19:50 | 0.05350 | 32.43867 | 3789 ft | 18 kts | 301° |
| 2026-05-08 19:51 | 0.05417 | 32.43759 | 3786 ft | 16 kts | 303° |
| 2026-05-08 19:51 | 0.05474 | 32.43677 | 3782 ft | 13 kts | 269° |
| 2026-05-08 19:51 | 0.05401 | 32.43642 | 3780 ft | 16 kts | 175° |
| 2026-05-08 19:51 | 0.05137 | 32.43679 | 3782 ft | 68 kts | 172° |
| 2026-05-08 19:52 | 0.04456 | 32.43774 | 3783 ft | 127 kts | 172° |
| 2026-05-08 19:52 | 0.03407 | 32.43918 | 3800 ft | 174 kts | 172° |
| 2026-05-08 19:52 | 0.02208 | 32.44060 | 4483 ft | 170 kts | 172° |
| 2026-05-08 19:52 | 0.00963 | 32.44250 | 4801 ft | 198 kts | 169° |
| 2026-05-08 19:53 | -0.00427 | 32.44489 | 5074 ft | 206 kts | 170° |
| 2026-05-08 19:53 | -0.01842 | 32.44694 | 5655 ft | 211 kts | 172° |
| 2026-05-08 19:53 | -0.03397 | 32.44887 | 5657 ft | 242 kts | 172° |
| 2026-05-08 19:53 | -0.05207 | 32.45125 | 5518 ft | 281 kts | 171° |
| 2026-05-08 19:54 | -0.07158 | 32.45401 | 6250 ft | 279 kts | 172° |
| 2026-05-08 19:54 | -0.09066 | 32.45659 | 7084 ft | 276 kts | 172° |
| 2026-05-08 19:54 | -0.10913 | 32.46176 | 7716 ft | 280 kts | 149° |
| 2026-05-08 19:54 | -0.12292 | 32.47500 | 8375 ft | 282 kts | 122° |
| 2026-05-08 19:55 | -0.12954 | 32.49339 | 9058 ft | 286 kts | 97° |
| 2026-05-08 19:55 | -0.12807 | 32.51327 | 9732 ft | 291 kts | 76° |
| 2026-05-08 19:55 | -0.12147 | 32.53263 | 10230 ft | 301 kts | 71° |
| 2026-05-08 19:55 | -0.11363 | 32.55282 | 10368 ft | 323 kts | 70° |
| 2026-05-08 19:56 | -0.10521 | 32.57426 | 10644 ft | 337 kts | 70° |
| 2026-05-08 19:56 | -0.09675 | 32.59624 | 10845 ft | 340 kts | 70° |
| 2026-05-08 19:56 | -0.08842 | 32.61836 | 10866 ft | 341 kts | 71° |
| 2026-05-08 19:56 | -0.08015 | 32.64055 | 10863 ft | 340 kts | 71° |
| 2026-05-08 19:57 | -0.07075 | 32.66200 | 10916 ft | 346 kts | 57° |
| 2026-05-08 19:57 | -0.05383 | 32.67902 | 11557 ft | 350 kts | 34° |
| 2026-05-08 19:57 | -0.03145 | 32.68861 | 12213 ft | 354 kts | 13° |
| 2026-05-08 19:57 | -0.00676 | 32.68948 | 12824 ft | 359 kts | 354° |
| 2026-05-08 19:58 | 0.01812 | 32.68614 | 13500 ft | 363 kts | 352° |
| 2026-05-08 19:58 | 0.04323 | 32.68226 | 14069 ft | 367 kts | 352° |
| 2026-05-08 19:58 | 0.06852 | 32.67836 | 14645 ft | 369 kts | 352° |
| 2026-05-08 19:58 | 0.09399 | 32.67456 | 15281 ft | 371 kts | 352° |
| 2026-05-08 19:59 | 0.11925 | 32.67096 | 15891 ft | 372 kts | 353° |
| 2026-05-08 19:59 | 0.14501 | 32.66736 | 16506 ft | 375 kts | 353° |
| 2026-05-08 19:59 | 0.17091 | 32.66379 | 17087 ft | 377 kts | 353° |
| 2026-05-08 19:59 | 0.19701 | 32.66030 | 17669 ft | 379 kts | 353° |
| 2026-05-08 20:00 | 0.22327 | 32.65717 | 18241 ft | 382 kts | 352° |
| 2026-05-08 20:00 | 0.24963 | 32.65298 | 18728 ft | 385 kts | 351° |
| 2026-05-08 20:00 | 0.27620 | 32.64888 | 19197 ft | 388 kts | 353° |
| 2026-05-08 20:00 | 0.30299 | 32.64523 | 19652 ft | 390 kts | 353° |
| 2026-05-08 20:01 | 0.33003 | 32.64155 | 20107 ft | 393 kts | 351° |
| 2026-05-08 20:01 | 0.35646 | 32.63434 | 20543 ft | 397 kts | 340° |
| 2026-05-08 20:01 | 0.38181 | 32.62408 | 21007 ft | 399 kts | 337° |
| 2026-05-08 20:01 | 0.40744 | 32.61304 | 21454 ft | 402 kts | 337° |
| 2026-05-08 20:02 | 0.43324 | 32.60187 | 21885 ft | 405 kts | 337° |
| 2026-05-08 20:02 | 0.45921 | 32.59078 | 22301 ft | 408 kts | 337° |
| 2026-05-08 20:02 | 0.48548 | 32.57974 | 22724 ft | 411 kts | 338° |
| 2026-05-08 20:02 | 0.51198 | 32.56876 | 23135 ft | 413 kts | 338° |
| 2026-05-08 20:03 | 0.53868 | 32.55778 | 23534 ft | 416 kts | 338° |
| 2026-05-08 20:03 | 0.56550 | 32.54679 | 23858 ft | 419 kts | 338° |
| 2026-05-08 20:03 | 0.59253 | 32.53574 | 24198 ft | 421 kts | 338° |
| 2026-05-08 20:03 | 0.61933 | 32.52479 | 24529 ft | 422 kts | 338° |
| 2026-05-08 20:04 | 0.64660 | 32.51364 | 24860 ft | 424 kts | 338° |
| 2026-05-08 20:04 | 0.67400 | 32.50243 | 25188 ft | 426 kts | 338° |
| 2026-05-08 20:04 | 0.70144 | 32.49121 | 25516 ft | 428 kts | 338° |
| 2026-05-08 20:04 | 0.72908 | 32.47990 | 25832 ft | 430 kts | 338° |
| 2026-05-08 20:05 | 0.75685 | 32.46854 | 26146 ft | 432 kts | 338° |
| 2026-05-08 20:05 | 0.78475 | 32.45712 | 26443 ft | 434 kts | 338° |
| 2026-05-08 20:05 | 0.81270 | 32.44568 | 26750 ft | 436 kts | 338° |
| 2026-05-08 20:05 | 0.84087 | 32.43415 | 27054 ft | 438 kts | 338° |
| 2026-05-08 20:06 | 0.86877 | 32.42274 | 27350 ft | 440 kts | 338° |
| 2026-05-08 20:06 | 0.89639 | 32.40965 | 27618 ft | 442 kts | 327° |
| 2026-05-08 20:06 | 0.92131 | 32.39151 | 27913 ft | 444 kts | 322° |
| 2026-05-08 20:06 | 0.94547 | 32.37230 | 28280 ft | 443 kts | 321° |
| 2026-05-08 20:07 | 0.96951 | 32.35306 | 28709 ft | 442 kts | 321° |
| 2026-05-08 20:07 | 0.99360 | 32.33406 | 29125 ft | 441 kts | 322° |
| 2026-05-08 20:07 | 1.01780 | 32.31532 | 29472 ft | 441 kts | 322° |
| 2026-05-08 20:07 | 1.04219 | 32.29665 | 29843 ft | 441 kts | 322° |
| 2026-05-08 20:08 | 1.06667 | 32.27799 | 29991 ft | 445 kts | 322° |
| 2026-05-08 20:08 | 1.09103 | 32.25942 | 29997 ft | 446 kts | 322° |
| 2026-05-08 20:08 | 1.14541 | 32.22942 | 30074 ft | 456 kts | 348° |
| 2026-05-08 20:09 | 1.17652 | 32.22337 | 30362 ft | 456 kts | 349° |
| 2026-05-08 20:09 | 1.20770 | 32.21784 | 30710 ft | 454 kts | 350° |
| 2026-05-08 20:09 | 1.23875 | 32.21239 | 31072 ft | 452 kts | 349° |
| 2026-05-08 20:09 | 1.26967 | 32.20687 | 31419 ft | 451 kts | 349° |
| 2026-05-08 20:10 | 1.30043 | 32.20124 | 31728 ft | 450 kts | 349° |
| 2026-05-08 20:10 | 1.33122 | 32.19550 | 31989 ft | 450 kts | 349° |
| 2026-05-08 20:10 | 1.39272 | 32.18386 | 31990 ft | 452 kts | 349° |
| 2026-05-08 20:11 | 1.45420 | 32.17216 | 31988 ft | 449 kts | 349° |
| 2026-05-08 20:11 | 1.51553 | 32.16050 | 31994 ft | 448 kts | 349° |
| 2026-05-08 20:12 | 1.57632 | 32.14896 | 31992 ft | 448 kts | 349° |
| 2026-05-08 20:12 | 1.63757 | 32.13732 | 31992 ft | 448 kts | 349° |
| 2026-05-08 20:13 | 1.69880 | 32.12569 | 31989 ft | 448 kts | 349° |
| 2026-05-08 20:13 | 1.76022 | 32.11403 | 31987 ft | 449 kts | 349° |
| 2026-05-08 20:14 | 1.82166 | 32.10236 | 31988 ft | 450 kts | 349° |
| 2026-05-08 20:14 | 1.88290 | 32.09072 | 31986 ft | 451 kts | 349° |
| 2026-05-08 20:15 | 1.94457 | 32.07901 | 31984 ft | 452 kts | 349° |
| 2026-05-08 20:15 | 2.00638 | 32.06725 | 31978 ft | 452 kts | 348° |
| 2026-05-08 20:16 | 2.06819 | 32.05549 | 31980 ft | 452 kts | 348° |
| 2026-05-08 20:16 | 2.12995 | 32.04374 | 31980 ft | 452 kts | 348° |
| 2026-05-08 20:17 | 2.19122 | 32.03208 | 31981 ft | 451 kts | 348° |
| 2026-05-08 20:17 | 2.25295 | 32.02033 | 31980 ft | 451 kts | 348° |
| 2026-05-08 20:18 | 2.31449 | 32.00861 | 31978 ft | 450 kts | 348° |
| 2026-05-08 20:18 | 2.37603 | 31.99690 | 31978 ft | 450 kts | 348° |
| 2026-05-08 20:19 | 2.43703 | 31.98528 | 31977 ft | 449 kts | 349° |
| 2026-05-08 20:19 | 2.49845 | 31.97358 | 31979 ft | 449 kts | 349° |
| 2026-05-08 20:20 | 2.55997 | 31.96298 | 31973 ft | 449 kts | 352° |
| 2026-05-08 20:20 | 2.62198 | 31.95595 | 31981 ft | 449 kts | 353° |
| 2026-05-08 20:21 | 2.68368 | 31.94954 | 31973 ft | 449 kts | 353° |
| 2026-05-08 20:21 | 2.74567 | 31.94280 | 31981 ft | 448 kts | 353° |
| 2026-05-08 20:22 | 2.80769 | 31.93581 | 31977 ft | 448 kts | 353° |
| 2026-05-08 20:22 | 2.85921 | 31.92994 | 31978 ft | 448 kts | 353° |
| 2026-05-08 20:23 | 2.93115 | 31.92174 | 31978 ft | 448 kts | 353° |
| 2026-05-08 20:23 | 2.99303 | 31.91469 | 31975 ft | 448 kts | 353° |
| 2026-05-08 20:24 | 3.05500 | 31.90764 | 31975 ft | 448 kts | 353° |
| 2026-05-08 20:24 | 3.11688 | 31.90060 | 31975 ft | 448 kts | 353° |
| 2026-05-08 20:25 | 3.17885 | 31.89355 | 31976 ft | 448 kts | 353° |
| 2026-05-08 20:25 | 3.24032 | 31.88655 | 31967 ft | 448 kts | 353° |
| 2026-05-08 20:26 | 3.30230 | 31.87950 | 31967 ft | 448 kts | 353° |
| 2026-05-08 20:26 | 3.36415 | 31.87245 | 31967 ft | 448 kts | 353° |
| 2026-05-08 20:27 | 3.42606 | 31.86541 | 31962 ft | 447 kts | 353° |
| 2026-05-08 20:27 | 3.48792 | 31.85836 | 31961 ft | 447 kts | 353° |
| 2026-05-08 20:28 | 3.54926 | 31.85137 | 31961 ft | 447 kts | 353° |
| 2026-05-08 20:28 | 3.61110 | 31.84433 | 31958 ft | 447 kts | 353° |
| 2026-05-08 20:29 | 3.67291 | 31.83729 | 31960 ft | 448 kts | 353° |
| 2026-05-08 20:29 | 3.73486 | 31.83023 | 31960 ft | 448 kts | 353° |
| 2026-05-08 20:30 | 3.79612 | 31.82325 | 31939 ft | 440 kts | 353° |
| 2026-05-08 20:30 | 3.82628 | 31.81981 | 31679 ft | 433 kts | 353° |
| 2026-05-08 20:30 | 3.85596 | 31.81643 | 31398 ft | 426 kts | 353° |
| 2026-05-08 20:31 | 3.88526 | 31.81309 | 31004 ft | 423 kts | 353° |
| 2026-05-08 20:31 | 3.91445 | 31.80976 | 30617 ft | 421 kts | 353° |
| 2026-05-08 20:31 | 3.94348 | 31.80645 | 30221 ft | 419 kts | 353° |
| 2026-05-08 20:31 | 3.97238 | 31.80288 | 29771 ft | 417 kts | 348° |
| 2026-05-08 20:32 | 3.99936 | 31.79293 | 29325 ft | 412 kts | 328° |
| 2026-05-08 20:32 | 4.02145 | 31.77572 | 28859 ft | 408 kts | 312° |
| 2026-05-08 20:32 | 4.03981 | 31.75419 | 28472 ft | 404 kts | 309° |
| 2026-05-08 20:32 | 4.05744 | 31.73231 | 28040 ft | 402 kts | 308° |
| 2026-05-08 20:33 | 4.07494 | 31.71064 | 27636 ft | 400 kts | 309° |
| 2026-05-08 20:33 | 4.09257 | 31.68923 | 27233 ft | 397 kts | 309° |
| 2026-05-08 20:33 | 4.11022 | 31.66805 | 26838 ft | 394 kts | 310° |
| 2026-05-08 20:33 | 4.12781 | 31.64705 | 26446 ft | 392 kts | 310° |
| 2026-05-08 20:34 | 4.14523 | 31.62622 | 26066 ft | 390 kts | 310° |
| 2026-05-08 20:34 | 4.16260 | 31.60546 | 25678 ft | 387 kts | 310° |
| 2026-05-08 20:34 | 4.19682 | 31.56450 | 24896 ft | 384 kts | 310° |
| 2026-05-08 20:35 | 4.21391 | 31.54405 | 24511 ft | 383 kts | 310° |
| 2026-05-08 20:35 | 4.23098 | 31.52360 | 24120 ft | 382 kts | 310° |
| 2026-05-08 20:35 | 4.24801 | 31.50321 | 23727 ft | 381 kts | 310° |
| 2026-05-08 20:35 | 4.26499 | 31.48287 | 23290 ft | 380 kts | 310° |
| 2026-05-08 20:36 | 4.28188 | 31.46264 | 22877 ft | 378 kts | 310° |
| 2026-05-08 20:36 | 4.29868 | 31.44251 | 22471 ft | 375 kts | 310° |
| 2026-05-08 20:36 | 4.31534 | 31.42255 | 22081 ft | 373 kts | 310° |
| 2026-05-08 20:36 | 4.33170 | 31.40294 | 21704 ft | 370 kts | 310° |
| 2026-05-08 20:37 | 4.34816 | 31.38322 | 21319 ft | 368 kts | 310° |
| 2026-05-08 20:37 | 4.36455 | 31.36358 | 20944 ft | 366 kts | 310° |
| 2026-05-08 20:37 | 4.38083 | 31.34406 | 20573 ft | 364 kts | 310° |
| 2026-05-08 20:37 | 4.39704 | 31.32464 | 20197 ft | 362 kts | 310° |
| 2026-05-08 20:38 | 4.41312 | 31.30537 | 19845 ft | 360 kts | 310° |
| 2026-05-08 20:38 | 4.43107 | 31.28809 | 19445 ft | 358 kts | 329° |
| 2026-05-08 20:38 | 4.45392 | 31.27894 | 19110 ft | 353 kts | 351° |
| 2026-05-08 20:38 | 4.47797 | 31.27852 | 18701 ft | 351 kts | 11° |
| 2026-05-08 20:39 | 4.50110 | 31.28597 | 18298 ft | 350 kts | 29° |
| 2026-05-08 20:39 | 4.52086 | 31.29990 | 17872 ft | 347 kts | 40° |
| 2026-05-08 20:39 | 4.53941 | 31.31540 | 17434 ft | 347 kts | 41° |
| 2026-05-08 20:39 | 4.55770 | 31.33114 | 17019 ft | 346 kts | 41° |
| 2026-05-08 20:40 | 4.57590 | 31.34684 | 16615 ft | 344 kts | 41° |
| 2026-05-08 20:40 | 4.59399 | 31.36232 | 16208 ft | 339 kts | 41° |
| 2026-05-08 20:40 | 4.61178 | 31.37747 | 15813 ft | 332 kts | 41° |
| 2026-05-08 20:40 | 4.62915 | 31.39220 | 15451 ft | 331 kts | 41° |
| 2026-05-08 20:41 | 4.64674 | 31.40707 | 15078 ft | 330 kts | 41° |
| 2026-05-08 20:41 | 4.66426 | 31.42187 | 14692 ft | 330 kts | 41° |
| 2026-05-08 20:41 | 4.68184 | 31.43669 | 14304 ft | 330 kts | 41° |
| 2026-05-08 20:41 | 4.69940 | 31.45149 | 13910 ft | 330 kts | 41° |
| 2026-05-08 20:42 | 4.71698 | 31.46630 | 13505 ft | 330 kts | 41° |
| 2026-05-08 20:42 | 4.73450 | 31.48107 | 13100 ft | 328 kts | 41° |
| 2026-05-08 20:42 | 4.75191 | 31.49574 | 12714 ft | 327 kts | 41° |
| 2026-05-08 20:42 | 4.76916 | 31.51028 | 12317 ft | 319 kts | 42° |
| 2026-05-08 20:43 | 4.78571 | 31.52422 | 11958 ft | 310 kts | 42° |
| 2026-05-08 20:43 | 4.80203 | 31.53796 | 11600 ft | 302 kts | 41° |
| 2026-05-08 20:43 | 4.81794 | 31.55136 | 11255 ft | 298 kts | 42° |
| 2026-05-08 20:43 | 4.83374 | 31.56469 | 10927 ft | 296 kts | 42° |
| 2026-05-08 20:44 | 4.84941 | 31.57789 | 10626 ft | 293 kts | 42° |
| 2026-05-08 20:44 | 4.86495 | 31.59099 | 10332 ft | 292 kts | 42° |
| 2026-05-08 20:44 | 4.88043 | 31.60403 | 10028 ft | 288 kts | 41° |
| 2026-05-08 20:44 | 4.89556 | 31.61676 | 9714 ft | 280 kts | 41° |
| 2026-05-08 20:45 | 4.91007 | 31.62892 | 9423 ft | 271 kts | 41° |
| 2026-05-08 20:45 | 4.91975 | 31.63711 | 9222 ft | 268 kts | 41° |
| 2026-05-08 20:45 | 4.93853 | 31.65299 | 8884 ft | 269 kts | 41° |
| 2026-05-08 20:45 | 4.95298 | 31.66519 | 8620 ft | 274 kts | 41° |
| 2026-05-08 20:46 | 4.96617 | 31.67890 | 8307 ft | 273 kts | 60° |
| 2026-05-08 20:46 | 4.97169 | 31.69656 | 8034 ft | 264 kts | 87° |
| 2026-05-08 20:46 | 4.96899 | 31.71435 | 7753 ft | 257 kts | 111° |
| 2026-05-08 20:46 | 4.96006 | 31.72951 | 7476 ft | 251 kts | 130° |
| 2026-05-08 20:47 | 4.94676 | 31.74052 | 7205 ft | 246 kts | 145° |
| 2026-05-08 20:47 | 4.93232 | 31.74935 | 6952 ft | 243 kts | 147° |
| 2026-05-08 20:47 | 4.91804 | 31.75774 | 6699 ft | 238 kts | 147° |
| 2026-05-08 20:47 | 4.90391 | 31.76608 | 6439 ft | 233 kts | 147° |
| 2026-05-08 20:48 | 4.89016 | 31.77429 | 6183 ft | 229 kts | 147° |
| 2026-05-08 20:48 | 4.87648 | 31.78252 | 5915 ft | 230 kts | 147° |
| 2026-05-08 20:48 | 4.86280 | 31.79078 | 5674 ft | 227 kts | 146° |
| 2026-05-08 20:48 | 4.84962 | 31.79884 | 5417 ft | 218 kts | 147° |
| 2026-05-08 20:49 | 4.83672 | 31.80650 | 5164 ft | 216 kts | 147° |
| 2026-05-08 20:49 | 4.82265 | 31.81188 | 4901 ft | 221 kts | 182° |
| 2026-05-08 20:49 | 4.80916 | 31.80598 | 4764 ft | 213 kts | 220° |
| 2026-05-08 20:49 | 4.79787 | 31.79632 | 4600 ft | 214 kts | 221° |
| 2026-05-08 20:50 | 4.78659 | 31.78701 | 4440 ft | 211 kts | 218° |
| 2026-05-08 20:50 | 4.77569 | 31.77783 | 4233 ft | 199 kts | 221° |
| 2026-05-08 20:50 | 4.76544 | 31.76903 | 4077 ft | 189 kts | 220° |
| 2026-05-08 20:50 | 4.75589 | 31.75990 | 3915 ft | 191 kts | 237° |
| 2026-05-08 20:51 | 4.75255 | 31.74744 | 3814 ft | 186 kts | 280° |
| 2026-05-08 20:51 | 4.75772 | 31.73592 | 3765 ft | 182 kts | 312° |
| 2026-05-08 20:51 | 4.76587 | 31.72623 | 3708 ft | 187 kts | 313° |
| 2026-05-08 20:51 | 4.77428 | 31.71631 | 3625 ft | 186 kts | 313° |
| 2026-05-08 20:52 | 4.78261 | 31.70650 | 3552 ft | 183 kts | 313° |
| 2026-05-08 20:52 | 4.79080 | 31.69688 | 3513 ft | 178 kts | 313° |
| 2026-05-08 20:52 | 4.79873 | 31.68755 | 3375 ft | 175 kts | 313° |
| 2026-05-08 20:52 | 4.80662 | 31.67825 | 3142 ft | 174 kts | 313° |
| 2026-05-08 20:53 | 4.81428 | 31.66921 | 2978 ft | 167 kts | 313° |
| 2026-05-08 20:53 | 4.82165 | 31.66050 | 2740 ft | 162 kts | 314° |
| 2026-05-08 20:53 | 4.82898 | 31.65196 | 2546 ft | 162 kts | 314° |
| 2026-05-08 20:53 | 4.83639 | 31.64324 | 2351 ft | 166 kts | 313° |
| 2026-05-08 20:54 | 4.84385 | 31.63449 | 2114 ft | 170 kts | 313° |
| 2026-05-08 20:54 | 4.85155 | 31.62541 | 1933 ft | 169 kts | 313° |
| 2026-05-08 20:54 | 4.85898 | 31.61663 | 1747 ft | 162 kts | 313° |
| 2026-05-08 20:54 | 4.86604 | 31.60803 | 1532 ft | 158 kts | 312° |
| 2026-05-08 20:55 | 4.87249 | 31.60054 | 1510 ft | 123 kts | 313° |
| 2026-05-08 20:55 | 4.87721 | 31.59499 | 1516 ft | 73 kts | 309° |
| 2026-05-08 20:55 | 4.87855 | 31.59339 | 1515 ft | 9 kts | 309° |
| 2026-05-08 20:55 | 4.87859 | 31.59280 | 1516 ft | 9 kts | 234° |